sensor_id;sensor_type;location;lat;lon;timestamp;pressure;altitude;pressure_sealevel;temperature;humidity
54455;BME280;40364;52.270;10.546;2023-12-29T00:01:36;99771.34;;;21.34;34.58
54455;BME280;40364;52.270;10.546;2023-12-29T00:04:03;99758.56;;;21.26;35.02
54455;BME280;40364;52.270;10.546;2023-12-29T00:06:32;99759.25;;;23.16;33.36
54455;BME280;40364;52.270;10.546;2023-12-29T00:08:59;99764.53;;;21.32;34.95
54455;BME280;40364;52.270;10.546;2023-12-29T00:11:26;99771.47;;;20.84;36.11
54455;BME280;40364;52.270;10.546;2023-12-29T00:13:53;99762.44;;;22.73;32.87
54455;BME280;40364;52.270;10.546;2023-12-29T00:16:19;99757.97;;;21.35;35.04
54455;BME280;40364;52.270;10.546;2023-12-29T00:18:47;99746.09;;;20.57;36.42
54455;BME280;40364;52.270;10.546;2023-12-29T00:21:14;99761.81;;;21.44;35.15
54455;BME280;40364;52.270;10.546;2023-12-29T00:23:42;99741.78;;;21.35;36.33
54455;BME280;40364;52.270;10.546;2023-12-29T00:26:09;99760.50;;;21.85;34.71
54455;BME280;40364;52.270;10.546;2023-12-29T00:28:35;99754.56;;;21.79;34.86
54455;BME280;40364;52.270;10.546;2023-12-29T00:31:05;99754.28;;;22.42;34.04
54455;BME280;40364;52.270;10.546;2023-12-29T00:33:32;99766.75;;;21.60;34.78
54455;BME280;40364;52.270;10.546;2023-12-29T00:35:59;99766.75;;;20.77;35.99
54455;BME280;40364;52.270;10.546;2023-12-29T00:38:26;99751.91;;;20.93;36.63
54455;BME280;40364;52.270;10.546;2023-12-29T00:40:55;99758.44;;;22.05;35.20
54455;BME280;40364;52.270;10.546;2023-12-29T00:43:21;99763.00;;;20.61;35.91
54455;BME280;40364;52.270;10.546;2023-12-29T00:45:48;99756.97;;;21.25;35.61
54455;BME280;40364;52.270;10.546;2023-12-29T00:48:15;99753.56;;;20.47;36.27
54455;BME280;40364;52.270;10.546;2023-12-29T00:50:42;99769.97;;;20.29;37.71
54455;BME280;40364;52.270;10.546;2023-12-29T00:53:09;99757.06;;;20.28;37.26
54455;BME280;40364;52.270;10.546;2023-12-29T00:55:35;99756.75;;;20.93;35.99
54455;BME280;40364;52.270;10.546;2023-12-29T00:58:03;99759.28;;;22.22;34.68
54455;BME280;40364;52.270;10.546;2023-12-29T01:00:30;99757.16;;;21.54;34.38
54455;BME280;40364;52.270;10.546;2023-12-29T01:02:57;99747.06;;;21.53;34.78
54455;BME280;40364;52.270;10.546;2023-12-29T01:05:23;99758.09;;;21.67;34.24
54455;BME280;40364;52.270;10.546;2023-12-29T01:07:50;99736.25;;;21.28;35.50
54455;BME280;40364;52.270;10.546;2023-12-29T01:10:16;99758.72;;;21.39;34.88
54455;BME280;40364;52.270;10.546;2023-12-29T01:12:43;99746.03;;;21.63;34.82
54455;BME280;40364;52.270;10.546;2023-12-29T01:15:11;99733.19;;;22.11;34.80
54455;BME280;40364;52.270;10.546;2023-12-29T01:17:38;99728.25;;;21.79;34.66
54455;BME280;40364;52.270;10.546;2023-12-29T01:20:05;99718.47;;;22.48;33.22
54455;BME280;40364;52.270;10.546;2023-12-29T01:22:32;99710.06;;;21.60;34.76
54455;BME280;40364;52.270;10.546;2023-12-29T01:24:59;99722.41;;;21.70;34.70
54455;BME280;40364;52.270;10.546;2023-12-29T01:27:26;99705.50;;;24.39;30.72
54455;BME280;40364;52.270;10.546;2023-12-29T01:29:52;99720.44;;;22.19;33.56
54455;BME280;40364;52.270;10.546;2023-12-29T01:32:21;99710.13;;;22.58;33.68
54455;BME280;40364;52.270;10.546;2023-12-29T01:34:47;99714.56;;;21.94;33.66
54455;BME280;40364;52.270;10.546;2023-12-29T01:37:14;99719.69;;;22.64;32.80
54455;BME280;40364;52.270;10.546;2023-12-29T01:39:41;99714.72;;;21.70;34.70
54455;BME280;40364;52.270;10.546;2023-12-29T01:42:07;99709.53;;;21.09;35.60
54455;BME280;40364;52.270;10.546;2023-12-29T01:44:34;99696.28;;;22.60;33.83
54455;BME280;40364;52.270;10.546;2023-12-29T01:47:01;99703.09;;;23.49;32.52
54455;BME280;40364;52.270;10.546;2023-12-29T01:49:29;99710.84;;;21.25;36.02
54455;BME280;40364;52.270;10.546;2023-12-29T01:51:58;99701.84;;;22.63;34.03
54455;BME280;40364;52.270;10.546;2023-12-29T01:54:27;99694.03;;;21.54;36.12
54455;BME280;40364;52.270;10.546;2023-12-29T01:56:57;99686.03;;;22.33;34.51
54455;BME280;40364;52.270;10.546;2023-12-29T01:59:25;99696.13;;;22.50;33.69
54455;BME280;40364;52.270;10.546;2023-12-29T02:01:53;99687.09;;;21.38;34.94
54455;BME280;40364;52.270;10.546;2023-12-29T02:04:21;99681.97;;;21.10;35.85
54455;BME280;40364;52.270;10.546;2023-12-29T02:06:51;99678.13;;;21.76;36.26
54455;BME280;40364;52.270;10.546;2023-12-29T02:09:18;99681.56;;;20.02;37.46
54455;BME280;40364;52.270;10.546;2023-12-29T02:11:45;99686.09;;;21.29;35.58
54455;BME280;40364;52.270;10.546;2023-12-29T02:14:11;99685.34;;;22.13;34.12
54455;BME280;40364;52.270;10.546;2023-12-29T02:16:44;99680.88;;;22.44;34.85
54455;BME280;40364;52.270;10.546;2023-12-29T02:19:36;99687.09;;;23.80;33.80
54455;BME280;40364;52.270;10.546;2023-12-29T02:22:05;99666.41;;;21.74;36.45
54455;BME280;40364;52.270;10.546;2023-12-29T02:24:33;99675.03;;;23.76;33.88
54455;BME280;40364;52.270;10.546;2023-12-29T02:27:07;99678.06;;;23.02;34.71
54455;BME280;40364;52.270;10.546;2023-12-29T02:29:38;99661.81;;;21.28;37.07
54455;BME280;40364;52.270;10.546;2023-12-29T02:32:11;99653.47;;;21.21;37.25
54455;BME280;40364;52.270;10.546;2023-12-29T02:34:40;99654.50;;;21.46;36.43
54455;BME280;40364;52.270;10.546;2023-12-29T02:39:34;99651.00;;;20.83;37.99
54455;BME280;40364;52.270;10.546;2023-12-29T02:42:03;99648.25;;;21.71;37.06
54455;BME280;40364;52.270;10.546;2023-12-29T02:44:29;99652.03;;;19.83;39.52
54455;BME280;40364;52.270;10.546;2023-12-29T02:46:56;99654.13;;;21.97;36.32
54455;BME280;40364;52.270;10.546;2023-12-29T02:49:25;99645.63;;;21.80;36.12
54455;BME280;40364;52.270;10.546;2023-12-29T02:51:52;99618.63;;;21.24;36.73
54455;BME280;40364;52.270;10.546;2023-12-29T02:54:19;99634.88;;;20.40;38.49
54455;BME280;40364;52.270;10.546;2023-12-29T02:56:45;99640.81;;;21.77;36.23
54455;BME280;40364;52.270;10.546;2023-12-29T02:59:13;99631.91;;;22.11;36.38
54455;BME280;40364;52.270;10.546;2023-12-29T03:01:40;99622.53;;;19.57;39.94
54455;BME280;40364;52.270;10.546;2023-12-29T03:04:07;99626.44;;;19.67;39.70
54455;BME280;40364;52.270;10.546;2023-12-29T03:06:34;99635.09;;;20.49;38.51
54455;BME280;40364;52.270;10.546;2023-12-29T03:09:01;99633.03;;;20.07;39.41
54455;BME280;40364;52.270;10.546;2023-12-29T03:11:28;99634.88;;;19.94;39.56
54455;BME280;40364;52.270;10.546;2023-12-29T03:13:55;99638.06;;;19.96;39.10
54455;BME280;40364;52.270;10.546;2023-12-29T03:16:23;99634.66;;;22.60;35.52
54455;BME280;40364;52.270;10.546;2023-12-29T03:18:50;99629.09;;;20.47;38.74
54455;BME280;40364;52.270;10.546;2023-12-29T03:21:16;99641.72;;;21.02;36.91
54455;BME280;40364;52.270;10.546;2023-12-29T03:23:43;99640.06;;;20.45;38.13
54455;BME280;40364;52.270;10.546;2023-12-29T03:26:10;99631.72;;;20.78;38.21
54455;BME280;40364;52.270;10.546;2023-12-29T03:28:36;99641.00;;;20.59;38.52
54455;BME280;40364;52.270;10.546;2023-12-29T03:31:03;99625.81;;;21.28;37.65
54455;BME280;40364;52.270;10.546;2023-12-29T03:33:33;99627.16;;;22.82;35.89
54455;BME280;40364;52.270;10.546;2023-12-29T03:35:59;99628.44;;;22.20;35.57
54455;BME280;40364;52.270;10.546;2023-12-29T03:38:26;99616.81;;;21.82;36.28
54455;BME280;40364;52.270;10.546;2023-12-29T03:40:53;99618.78;;;20.57;38.17
54455;BME280;40364;52.270;10.546;2023-12-29T03:43:19;99610.69;;;21.51;37.10
54455;BME280;40364;52.270;10.546;2023-12-29T03:45:46;99615.41;;;21.90;36.75
54455;BME280;40364;52.270;10.546;2023-12-29T03:48:13;99604.47;;;21.24;37.84
54455;BME280;40364;52.270;10.546;2023-12-29T03:50:41;99596.91;;;21.85;37.70
54455;BME280;40364;52.270;10.546;2023-12-29T03:53:08;99589.66;;;19.94;40.27
54455;BME280;40364;52.270;10.546;2023-12-29T03:55:34;99585.63;;;20.97;38.30
54455;BME280;40364;52.270;10.546;2023-12-29T03:58:03;99564.94;;;21.00;38.52
54455;BME280;40364;52.270;10.546;2023-12-29T04:00:29;99578.19;;;20.47;39.54
54455;BME280;40364;52.270;10.546;2023-12-29T04:02:56;99590.03;;;22.61;35.40
54455;BME280;40364;52.270;10.546;2023-12-29T04:05:23;99579.56;;;20.39;38.92
54455;BME280;40364;52.270;10.546;2023-12-29T04:07:51;99567.28;;;20.66;40.10
54455;BME280;40364;52.270;10.546;2023-12-29T04:10:17;99584.94;;;21.62;37.86
54455;BME280;40364;52.270;10.546;2023-12-29T04:12:44;99587.75;;;20.54;39.28
54455;BME280;40364;52.270;10.546;2023-12-29T04:15:11;99592.66;;;21.94;37.56
54455;BME280;40364;52.270;10.546;2023-12-29T04:17:38;99617.72;;;21.63;37.29
54455;BME280;40364;52.270;10.546;2023-12-29T04:20:06;99595.13;;;21.92;37.45
54455;BME280;40364;52.270;10.546;2023-12-29T04:22:32;99596.25;;;21.29;38.59
54455;BME280;40364;52.270;10.546;2023-12-29T04:25:01;99617.84;;;20.83;40.52
54455;BME280;40364;52.270;10.546;2023-12-29T04:27:27;99609.66;;;20.26;41.10
54455;BME280;40364;52.270;10.546;2023-12-29T04:29:54;99611.97;;;21.66;40.51
54455;BME280;40364;52.270;10.546;2023-12-29T04:32:20;99578.31;;;21.16;43.07
54455;BME280;40364;52.270;10.546;2023-12-29T04:34:47;99598.31;;;20.06;45.72
54455;BME280;40364;52.270;10.546;2023-12-29T04:37:14;99595.47;;;21.45;42.57
54455;BME280;40364;52.270;10.546;2023-12-29T04:39:40;99617.84;;;20.64;45.07
54455;BME280;40364;52.270;10.546;2023-12-29T04:42:08;99610.19;;;21.40;43.96
54455;BME280;40364;52.270;10.546;2023-12-29T04:44:35;99607.91;;;20.95;44.66
54455;BME280;40364;52.270;10.546;2023-12-29T04:47:02;99619.44;;;20.45;45.20
54455;BME280;40364;52.270;10.546;2023-12-29T04:49:29;99612.19;;;20.83;44.01
54455;BME280;40364;52.270;10.546;2023-12-29T04:51:55;99583.25;;;21.48;42.21
54455;BME280;40364;52.270;10.546;2023-12-29T04:54:23;99559.69;;;20.99;45.06
54455;BME280;40364;52.270;10.546;2023-12-29T04:56:50;99542.78;;;20.39;44.40
54455;BME280;40364;52.270;10.546;2023-12-29T04:59:18;99539.38;;;20.68;44.98
54455;BME280;40364;52.270;10.546;2023-12-29T05:05:07;99553.53;;;21.04;43.15
54455;BME280;40364;52.270;10.546;2023-12-29T05:07:34;99568.03;;;20.70;42.08
54455;BME280;40364;52.270;10.546;2023-12-29T05:10:00;99568.59;;;19.75;44.81
54455;BME280;40364;52.270;10.546;2023-12-29T05:12:27;99563.97;;;20.28;43.40
54455;BME280;40364;52.270;10.546;2023-12-29T05:14:55;99583.81;;;20.87;43.77
54455;BME280;40364;52.270;10.546;2023-12-29T05:17:22;99591.59;;;20.20;42.95
54455;BME280;40364;52.270;10.546;2023-12-29T05:19:48;99588.03;;;20.39;43.12
54455;BME280;40364;52.270;10.546;2023-12-29T05:22:15;99603.97;;;20.89;41.91
54455;BME280;40364;52.270;10.546;2023-12-29T05:24:43;99591.00;;;23.50;36.81
54455;BME280;40364;52.270;10.546;2023-12-29T05:27:10;99585.34;;;19.62;44.33
54455;BME280;40364;52.270;10.546;2023-12-29T05:29:37;99591.00;;;20.92;41.97
54455;BME280;40364;52.270;10.546;2023-12-29T05:32:06;99587.00;;;20.06;44.20
54455;BME280;40364;52.270;10.546;2023-12-29T05:34:33;99576.50;;;19.60;44.65
54455;BME280;40364;52.270;10.546;2023-12-29T05:37:00;99591.97;;;20.45;43.68
54455;BME280;40364;52.270;10.546;2023-12-29T05:39:27;99580.78;;;21.14;41.46
54455;BME280;40364;52.270;10.546;2023-12-29T05:41:54;99600.78;;;22.24;40.39
54455;BME280;40364;52.270;10.546;2023-12-29T05:44:21;99595.13;;;20.87;43.42
54455;BME280;40364;52.270;10.546;2023-12-29T05:46:48;99602.44;;;19.55;45.96
54455;BME280;40364;52.270;10.546;2023-12-29T05:49:16;99589.81;;;21.61;42.20
54455;BME280;40364;52.270;10.546;2023-12-29T05:51:43;99617.03;;;20.83;42.98
54455;BME280;40364;52.270;10.546;2023-12-29T05:54:09;99612.41;;;19.87;47.17
54455;BME280;40364;52.270;10.546;2023-12-29T05:56:36;99612.25;;;19.94;47.95
54455;BME280;40364;52.270;10.546;2023-12-29T05:59:03;99611.03;;;20.61;45.45
54455;BME280;40364;52.270;10.546;2023-12-29T06:01:30;99611.50;;;20.36;46.22
54455;BME280;40364;52.270;10.546;2023-12-29T06:03:56;99613.16;;;20.77;45.05
54455;BME280;40364;52.270;10.546;2023-12-29T06:06:24;99625.97;;;21.01;44.91
54455;BME280;40364;52.270;10.546;2023-12-29T06:08:51;99612.09;;;19.81;46.65
54455;BME280;40364;52.270;10.546;2023-12-29T06:11:18;99616.56;;;19.78;47.89
54455;BME280;40364;52.270;10.546;2023-12-29T06:13:46;99608.94;;;19.99;46.75
54455;BME280;40364;52.270;10.546;2023-12-29T06:16:17;99608.50;;;21.59;43.32
54455;BME280;40364;52.270;10.546;2023-12-29T06:18:44;99611.63;;;19.59;47.22
54455;BME280;40364;52.270;10.546;2023-12-29T06:21:10;99607.66;;;19.57;48.15
54455;BME280;40364;52.270;10.546;2023-12-29T06:23:38;99611.25;;;20.90;45.17
54455;BME280;40364;52.270;10.546;2023-12-29T06:26:05;99612.69;;;20.15;46.12
54455;BME280;40364;52.270;10.546;2023-12-29T06:28:39;99589.19;;;19.75;47.40
54455;BME280;40364;52.270;10.546;2023-12-29T06:31:06;99589.97;;;19.76;47.80
54455;BME280;40364;52.270;10.546;2023-12-29T06:33:33;99602.97;;;20.60;45.49
54455;BME280;40364;52.270;10.546;2023-12-29T06:36:00;99615.63;;;20.75;45.89
54455;BME280;40364;52.270;10.546;2023-12-29T06:38:27;99597.41;;;21.48;43.23
54455;BME280;40364;52.270;10.546;2023-12-29T06:40:55;99608.25;;;21.69;43.18
54455;BME280;40364;52.270;10.546;2023-12-29T06:43:22;99599.84;;;20.94;44.25
54455;BME280;40364;52.270;10.546;2023-12-29T06:45:48;99597.38;;;20.96;44.29
54455;BME280;40364;52.270;10.546;2023-12-29T06:48:15;99596.78;;;21.04;43.79
54455;BME280;40364;52.270;10.546;2023-12-29T06:50:42;99589.56;;;21.19;44.15
54455;BME280;40364;52.270;10.546;2023-12-29T06:53:08;99588.47;;;19.68;46.94
54455;BME280;40364;52.270;10.546;2023-12-29T06:55:35;99587.25;;;20.78;45.61
54455;BME280;40364;52.270;10.546;2023-12-29T06:58:04;99575.59;;;20.93;45.81
54455;BME280;40364;52.270;10.546;2023-12-29T07:00:30;99567.66;;;21.24;43.82
54455;BME280;40364;52.270;10.546;2023-12-29T07:02:57;99580.94;;;22.82;39.84
54455;BME280;40364;52.270;10.546;2023-12-29T07:05:24;99582.66;;;22.34;41.41
54455;BME280;40364;52.270;10.546;2023-12-29T07:07:50;99586.69;;;21.03;43.40
54455;BME280;40364;52.270;10.546;2023-12-29T07:10:17;99585.22;;;22.00;42.01
54455;BME280;40364;52.270;10.546;2023-12-29T07:12:44;99595.34;;;20.57;44.58
54455;BME280;40364;52.270;10.546;2023-12-29T07:15:12;99590.69;;;22.94;40.79
54455;BME280;40364;52.270;10.546;2023-12-29T07:17:40;99587.84;;;21.26;42.22
54455;BME280;40364;52.270;10.546;2023-12-29T07:20:07;99601.59;;;21.60;42.14
54455;BME280;40364;52.270;10.546;2023-12-29T07:22:34;99612.00;;;20.31;44.71
54455;BME280;40364;52.270;10.546;2023-12-29T07:25:02;99607.91;;;20.95;43.29
54455;BME280;40364;52.270;10.546;2023-12-29T07:27:28;99599.56;;;21.76;40.92
54455;BME280;40364;52.270;10.546;2023-12-29T07:29:55;99592.72;;;23.73;37.54
54455;BME280;40364;52.270;10.546;2023-12-29T07:32:23;99619.06;;;23.23;39.55
54455;BME280;40364;52.270;10.546;2023-12-29T07:34:50;99599.81;;;21.98;40.41
54455;BME280;40364;52.270;10.546;2023-12-29T07:37:17;99618.88;;;22.30;39.86
54455;BME280;40364;52.270;10.546;2023-12-29T07:39:44;99613.91;;;22.18;39.63
54455;BME280;40364;52.270;10.546;2023-12-29T07:42:12;99615.34;;;22.10;40.17
54455;BME280;40364;52.270;10.546;2023-12-29T07:44:42;99621.06;;;23.09;37.98
54455;BME280;40364;52.270;10.546;2023-12-29T07:47:08;99618.50;;;21.79;40.51
54455;BME280;40364;52.270;10.546;2023-12-29T07:49:37;99614.09;;;22.98;38.82
54455;BME280;40364;52.270;10.546;2023-12-29T07:52:04;99617.44;;;23.09;38.43
54455;BME280;40364;52.270;10.546;2023-12-29T07:54:29;99615.94;;;22.01;39.71
54455;BME280;40364;52.270;10.546;2023-12-29T07:56:56;99614.97;;;22.08;39.36
54455;BME280;40364;52.270;10.546;2023-12-29T07:59:23;99610.75;;;24.04;36.42
54455;BME280;40364;52.270;10.546;2023-12-29T08:01:50;99617.03;;;24.90;34.73
54455;BME280;40364;52.270;10.546;2023-12-29T08:04:16;99632.25;;;23.93;35.98
54455;BME280;40364;52.270;10.546;2023-12-29T08:06:44;99637.25;;;23.50;37.58
54455;BME280;40364;52.270;10.546;2023-12-29T08:09:11;99632.22;;;23.16;37.50
54455;BME280;40364;52.270;10.546;2023-12-29T08:11:38;99652.19;;;22.26;39.15
54455;BME280;40364;52.270;10.546;2023-12-29T08:14:04;99626.66;;;22.26;38.27
54455;BME280;40364;52.270;10.546;2023-12-29T08:16:37;99626.38;;;23.74;36.70
54455;BME280;40364;52.270;10.546;2023-12-29T08:19:04;99644.94;;;22.09;38.61
54455;BME280;40364;52.270;10.546;2023-12-29T08:21:32;99633.03;;;22.30;37.96
54455;BME280;40364;52.270;10.546;2023-12-29T08:23:59;99635.09;;;23.42;36.31
54455;BME280;40364;52.270;10.546;2023-12-29T08:28:53;99635.81;;;23.71;35.14
54455;BME280;40364;52.270;10.546;2023-12-29T08:31:19;99622.97;;;21.28;38.95
54455;BME280;40364;52.270;10.546;2023-12-29T08:33:47;99646.13;;;21.75;38.36
54455;BME280;40364;52.270;10.546;2023-12-29T08:36:18;99641.81;;;22.65;37.40
54455;BME280;40364;52.270;10.546;2023-12-29T08:38:44;99638.72;;;21.98;37.26
54455;BME280;40364;52.270;10.546;2023-12-29T08:41:14;99635.25;;;23.76;35.26
54455;BME280;40364;52.270;10.546;2023-12-29T08:43:41;99644.84;;;22.12;36.54
54455;BME280;40364;52.270;10.546;2023-12-29T08:46:08;99646.91;;;22.86;36.01
54455;BME280;40364;52.270;10.546;2023-12-29T08:48:34;99666.53;;;22.35;36.44
54455;BME280;40364;52.270;10.546;2023-12-29T08:51:01;99661.53;;;22.56;35.73
54455;BME280;40364;52.270;10.546;2023-12-29T08:53:27;99663.16;;;22.86;36.01
54455;BME280;40364;52.270;10.546;2023-12-29T08:55:56;99674.56;;;22.53;36.25
54455;BME280;40364;52.270;10.546;2023-12-29T08:58:24;99673.97;;;21.80;38.01
54455;BME280;40364;52.270;10.546;2023-12-29T09:00:51;99665.56;;;22.87;35.76
54455;BME280;40364;52.270;10.546;2023-12-29T09:03:17;99662.38;;;22.85;35.80
54455;BME280;40364;52.270;10.546;2023-12-29T09:05:44;99659.00;;;21.64;37.35
54455;BME280;40364;52.270;10.546;2023-12-29T09:08:11;99668.06;;;22.07;37.13
54455;BME280;40364;52.270;10.546;2023-12-29T09:10:37;99667.25;;;22.07;36.56
54455;BME280;40364;52.270;10.546;2023-12-29T09:13:05;99667.81;;;23.21;35.10
54455;BME280;40364;52.270;10.546;2023-12-29T09:15:33;99667.75;;;23.63;34.96
54455;BME280;40364;52.270;10.546;2023-12-29T09:18:00;99662.34;;;22.40;36.14
54455;BME280;40364;52.270;10.546;2023-12-29T09:20:27;99655.50;;;22.54;35.44
54455;BME280;40364;52.270;10.546;2023-12-29T09:22:54;99650.06;;;22.14;36.34
54455;BME280;40364;52.270;10.546;2023-12-29T09:25:21;99648.97;;;22.98;35.02
54455;BME280;40364;52.270;10.546;2023-12-29T09:27:47;99642.25;;;23.34;34.21
54455;BME280;40364;52.270;10.546;2023-12-29T09:30:14;99635.66;;;22.54;35.09
54455;BME280;40364;52.270;10.546;2023-12-29T09:32:43;99636.16;;;24.21;33.50
54455;BME280;40364;52.270;10.546;2023-12-29T09:35:09;99627.41;;;22.88;35.06
54455;BME280;40364;52.270;10.546;2023-12-29T09:37:36;99616.13;;;22.56;35.46
54455;BME280;40364;52.270;10.546;2023-12-29T09:40:04;99624.16;;;23.91;33.74
54455;BME280;40364;52.270;10.546;2023-12-29T09:42:31;99651.56;;;24.10;33.33
54455;BME280;40364;52.270;10.546;2023-12-29T09:45:02;99638.78;;;22.72;35.32
54455;BME280;40364;52.270;10.546;2023-12-29T09:47:33;99646.88;;;22.12;36.61
54455;BME280;40364;52.270;10.546;2023-12-29T09:50:06;99651.06;;;22.52;35.77
54455;BME280;40364;52.270;10.546;2023-12-29T09:52:34;99656.91;;;23.32;34.80
54455;BME280;40364;52.270;10.546;2023-12-29T09:55:02;99654.03;;;24.21;33.23
54455;BME280;40364;52.270;10.546;2023-12-29T09:57:29;99657.09;;;23.12;34.84
54455;BME280;40364;52.270;10.546;2023-12-29T09:59:57;99644.94;;;23.25;37.01
54455;BME280;40364;52.270;10.546;2023-12-29T10:02:25;99650.72;;;22.50;38.76
54455;BME280;40364;52.270;10.546;2023-12-29T10:04:51;99645.06;;;22.34;39.17
54455;BME280;40364;52.270;10.546;2023-12-29T10:07:24;99667.94;;;23.43;40.40
54455;BME280;40364;52.270;10.546;2023-12-29T10:09:52;99669.69;;;21.72;43.64
54455;BME280;40364;52.270;10.546;2023-12-29T10:12:21;99663.72;;;22.64;42.06
54455;BME280;40364;52.270;10.546;2023-12-29T10:14:52;99664.06;;;22.21;42.63
54455;BME280;40364;52.270;10.546;2023-12-29T10:17:28;99678.13;;;23.28;41.96
54455;BME280;40364;52.270;10.546;2023-12-29T10:20:03;99677.88;;;21.87;44.82
54455;BME280;40364;52.270;10.546;2023-12-29T10:22:41;99671.44;;;22.64;43.15
54455;BME280;40364;52.270;10.546;2023-12-29T10:25:14;99675.91;;;20.25;47.67
54455;BME280;40364;52.270;10.546;2023-12-29T10:27:40;99664.28;;;20.86;47.03
54455;BME280;40364;52.270;10.546;2023-12-29T10:30:10;99661.03;;;21.63;45.70
54455;BME280;40364;52.270;10.546;2023-12-29T10:32:37;99658.66;;;21.42;45.82
54455;BME280;40364;52.270;10.546;2023-12-29T10:35:08;99632.53;;;22.19;44.23
54455;BME280;40364;52.270;10.546;2023-12-29T10:37:37;99639.63;;;22.11;45.25
54455;BME280;40364;52.270;10.546;2023-12-29T10:40:05;99647.53;;;20.95;47.10
54455;BME280;40364;52.270;10.546;2023-12-29T10:42:32;99638.09;;;20.82;47.21
54455;BME280;40364;52.270;10.546;2023-12-29T10:45:06;99647.34;;;23.13;44.34
54455;BME280;40364;52.270;10.546;2023-12-29T10:47:33;99640.81;;;21.77;45.42
54455;BME280;40364;52.270;10.546;2023-12-29T10:50:02;99647.50;;;23.48;43.23
54455;BME280;40364;52.270;10.546;2023-12-29T10:52:31;99642.91;;;23.12;43.65
54455;BME280;40364;52.270;10.546;2023-12-29T10:55:07;99654.34;;;21.37;47.94
54455;BME280;40364;52.270;10.546;2023-12-29T10:57:34;99647.03;;;23.49;42.92
54455;BME280;40364;52.270;10.546;2023-12-29T11:00:01;99645.88;;;20.98;47.68
54455;BME280;40364;52.270;10.546;2023-12-29T11:02:29;99630.19;;;21.81;46.55
54455;BME280;40364;52.270;10.546;2023-12-29T11:05:03;99631.84;;;22.73;45.25
54455;BME280;40364;52.270;10.546;2023-12-29T11:07:34;99625.59;;;21.71;47.52
54455;BME280;40364;52.270;10.546;2023-12-29T11:10:02;99629.53;;;22.84;44.17
54455;BME280;40364;52.270;10.546;2023-12-29T11:12:32;99626.91;;;20.95;49.81
54455;BME280;40364;52.270;10.546;2023-12-29T11:15:01;99620.47;;;21.82;47.49
54455;BME280;40364;52.270;10.546;2023-12-29T11:17:29;99615.88;;;22.50;45.51
54455;BME280;40364;52.270;10.546;2023-12-29T11:19:58;99623.16;;;22.35;45.17
54455;BME280;40364;52.270;10.546;2023-12-29T11:22:27;99605.34;;;22.34;44.75
54455;BME280;40364;52.270;10.546;2023-12-29T11:24:54;99607.53;;;22.14;45.96
54455;BME280;40364;52.270;10.546;2023-12-29T11:27:26;99603.38;;;21.70;48.13
54455;BME280;40364;52.270;10.546;2023-12-29T11:29:55;99610.09;;;21.76;46.98
54455;BME280;40364;52.270;10.546;2023-12-29T11:32:25;99606.41;;;21.27;49.08
54455;BME280;40364;52.270;10.546;2023-12-29T11:34:59;99611.44;;;21.88;48.22
54455;BME280;40364;52.270;10.546;2023-12-29T11:37:37;99575.16;;;22.28;44.67
54455;BME280;40364;52.270;10.546;2023-12-29T11:40:14;99576.09;;;23.46;43.35
54455;BME280;40364;52.270;10.546;2023-12-29T11:42:44;99587.06;;;20.85;49.97
54455;BME280;40364;52.270;10.546;2023-12-29T11:45:29;99568.13;;;22.61;44.03
54455;BME280;40364;52.270;10.546;2023-12-29T11:47:57;99591.38;;;20.11;50.06
54455;BME280;40364;52.270;10.546;2023-12-29T11:50:28;99561.19;;;21.23;47.36
54455;BME280;40364;52.270;10.546;2023-12-29T11:52:56;99564.09;;;22.17;46.61
54455;BME280;40364;52.270;10.546;2023-12-29T11:55:28;99570.75;;;20.93;49.06
54455;BME280;40364;52.270;10.546;2023-12-29T11:57:56;99572.91;;;19.83;51.28
54455;BME280;40364;52.270;10.546;2023-12-29T12:00:42;99578.81;;;21.11;48.08
54455;BME280;40364;52.270;10.546;2023-12-29T12:03:16;99576.88;;;22.09;46.44
54455;BME280;40364;52.270;10.546;2023-12-29T12:05:45;99568.16;;;20.43;49.81
54455;BME280;40364;52.270;10.546;2023-12-29T12:08:26;99571.88;;;22.71;44.84
54455;BME280;40364;52.270;10.546;2023-12-29T12:10:53;99565.78;;;20.18;49.49
54455;BME280;40364;52.270;10.546;2023-12-29T12:13:42;99557.88;;;22.22;45.13
54455;BME280;40364;52.270;10.546;2023-12-29T12:16:48;99554.19;;;21.76;45.32
54455;BME280;40364;52.270;10.546;2023-12-29T12:19:16;99554.41;;;21.37;44.90
54455;BME280;40364;52.270;10.546;2023-12-29T12:21:46;99548.19;;;21.91;45.12
54455;BME280;40364;52.270;10.546;2023-12-29T12:24:14;99554.31;;;20.68;46.46
54455;BME280;40364;52.270;10.546;2023-12-29T12:26:41;99549.38;;;21.08;45.31
54455;BME280;40364;52.270;10.546;2023-12-29T12:29:08;99531.03;;;22.27;42.66
54455;BME280;40364;52.270;10.546;2023-12-29T12:31:36;99545.78;;;21.89;44.30
54455;BME280;40364;52.270;10.546;2023-12-29T12:34:03;99544.69;;;20.82;44.91
54455;BME280;40364;52.270;10.546;2023-12-29T12:36:31;99548.75;;;20.22;45.86
54455;BME280;40364;52.270;10.546;2023-12-29T12:38:58;99543.41;;;20.27;45.58
54455;BME280;40364;52.270;10.546;2023-12-29T12:41:26;99541.47;;;21.00;44.51
54455;BME280;40364;52.270;10.546;2023-12-29T12:44:00;99557.84;;;21.93;42.70
54455;BME280;40364;52.270;10.546;2023-12-29T12:46:33;99543.97;;;22.28;42.41
54455;BME280;40364;52.270;10.546;2023-12-29T12:49:02;99546.88;;;21.10;43.68
54455;BME280;40364;52.270;10.546;2023-12-29T12:51:29;99552.50;;;20.78;43.66
54455;BME280;40364;52.270;10.546;2023-12-29T12:53:57;99551.66;;;20.97;43.84
54455;BME280;40364;52.270;10.546;2023-12-29T12:56:24;99545.03;;;20.48;44.50
54455;BME280;40364;52.270;10.546;2023-12-29T12:58:53;99557.81;;;22.09;41.34
54455;BME280;40364;52.270;10.546;2023-12-29T13:01:21;99562.78;;;22.92;40.01
54455;BME280;40364;52.270;10.546;2023-12-29T13:03:48;99558.88;;;22.44;39.54